avr
22

GP DE BULGARIE – DIMANCHE : TOUS LES RÉSULTATS

MX1 – Warm-up – Classification
Pos Nr Rider Nat. Fed. Bike Bestlaptime in lap Diff. First Diff. Prev. Tot. Laps Speed

1 21 Paulin, Gautier FRA FFM Kawasaki 1:47.359 6 0:00.000 0:00.000 7 56.334
2 30 Aranda, Gregory FRA FFM Yamaha 1:48.923 7 0:01.564 0:01.564 8 55.525
3 121 Boog, Xavier FRA FFM Kawasaki 1:48.925 9 0:01.566 0:00.002 10 55.524
4 377 Pourcel, Christophe FRA FFM Kawasaki 1:49.592 6 0:02.233 0:00.667 8 55.187
5 7 Barragan, Jonathan ESP RFME Honda 1:50.370 10 0:03.011 0:00.778 10 54.797
6 120 Soubeyras, Cedric FRA FFM Honda 1:50.471 5 0:03.112 0:00.101 6 54.747
7 777 Bobryshev, Evgeny RUS MFR Honda 1:50.592 5 0:03.233 0:00.121 7 54.688
8 999 Goncalves, Rui POR FMP Honda 1:50.876 4 0:03.517 0:00.284 9 54.547
9 22 Strijbos, Kevin BEL FMB KTM 1:51.184 8 0:03.825 0:00.308 8 54.396
10 24 Simpson, Shaun GBR ACU Yamaha 1:51.543 6 0:04.184 0:00.359 9 54.221
11 32 Potisek, Milko FRA FFM Honda 1:51.928 9 0:04.569 0:00.385 9 54.035
12 25 Desalle, Clement BEL FMB Suzuki 1:52.229 5 0:04.870 0:00.301 8 53.89
13 19 Philippaerts, David ITA FMI Yamaha 1:52.694 3 0:05.335 0:00.465 5 53.667
14 9 de Dycker, Ken BEL FMB KTM 1:52.734 5 0:05.375 0:00.040 8 53.648
15 10 Boissiere, Anthony FRA FFM TM 1:53.190 6 0:05.831 0:00.456 7 53.432
16 91 Karro, Matiss LAT LAMSF KTM 1:53.487 6 0:06.128 0:00.297 8 53.292
17 111 Ferris, Dean AUS MA Kawasaki 1:53.728 5 0:06.369 0:00.241 6 53.18
18 11 Pourcel, Sebastien FRA FFM Kawasaki 1:54.090 6 0:06.731 0:00.362 8 53.011
19 36 Bonini, Matteo ITA FMI KTM 1:54.339 6 0:06.980 0:00.249 7 52.895
20 42 Parker, Nathan GBR ACU KTM 1:55.921 4 0:08.562 0:01.582 6 52.173
21 41 Smith, Alfie GBR ACU Yamaha 1:56.142 7 0:08.783 0:00.221 7 52.074
22 95 Justs, Augusts LAT LAMSF Honda 1:56.359 3 0:09.000 0:00.217 7 51.977
23 74 Steinbergs, Ivo LAT LAMSF Kawasaki 1:57.113 3 0:09.754 0:00.754 8 51.642
24 61 Brakke, Herjan NED KNMV Yamaha 1:57.195 3 0:09.836 0:00.082 6 51.606
25 39 Guarneri, Davide ITA FMI KTM 1:57.618 3 0:10.259 0:00.423 7 51.421
26 67 Tiainen, Santtu FIN SML Kawasaki 1:58.502 6 0:11.143 0:00.884 8 51.037
27 116 Pashchynskyi, Mykola UKR FMU KTM 1:58.720 8 0:11.361 0:00.218 8 50.943
28 611 Cociu, Mihail MOL FMI KTM 2:00.275 3 0:12.916 0:01.555 8 50.285
29 99 Teko, Kristers LAT LAMSF Honda 2:02.036 7 0:14.677 0:01.761 7 49.559
30 222 Cairoli, Antonio ITA FMI KTM 2:06.324 2 0:18.965 0:04.288 4 47.877
31 4 Leok, Tanel EST EMF Suzuki 2:08.200 2 0:20.841 0:01.876 6 47.176

MX1 – Grand Prix Race 1 – Classification
Pos Nr Rider Nat. Fed. Bike Time laps Diff. First Diff. Prev. Bestlaptime in lap Speed

1 377 Pourcel, Christophe FRA FFM Kawasaki 39:09.159 20 0:00.000 0:00.000 1:50.914 7 54.529
2 21 Paulin, Gautier FRA FFM Kawasaki 39:14.826 20 0:05.667 0:05.667 1:50.080 18 54.942
3 25 Desalle, Clement BEL FMB Suzuki 39:16.877 20 0:07.718 0:02.051 1:50.843 18 54.564
4 222 Cairoli, Antonio ITA FMI KTM 39:17.626 20 0:08.467 0:00.749 1:50.476 18 54.745
5 19 Philippaerts, David ITA FMI Yamaha 39:29.790 20 0:20.631 0:12.164 1:51.841 10 54.077
6 121 Boog, Xavier FRA FFM Kawasaki 39:30.929 20 0:21.770 0:01.139 1:51.991 17 54.004
7 9 de Dycker, Ken BEL FMB KTM 39:45.186 20 0:36.027 0:14.257 1:51.769 7 54.112
8 777 Bobryshev, Evgeny RUS MFR Honda 39:53.408 20 0:44.249 0:08.222 1:52.072 12 53.965
9 999 Goncalves, Rui POR FMP Honda 39:53.569 20 0:44.410 0:00.161 1:52.841 11 53.598
10 30 Aranda, Gregory FRA FFM Yamaha 40:06.698 20 0:57.539 0:13.129 1:52.988 13 53.528
11 24 Simpson, Shaun GBR ACU Yamaha 40:10.979 20 1:01.820 0:04.281 1:53.994 14 53.055
12 22 Strijbos, Kevin BEL FMB KTM 40:13.387 20 1:04.228 0:02.408 1:52.988 12 53.528
13 120 Soubeyras, Cedric FRA FFM Honda 40:15.869 20 1:06.710 0:02.482 1:53.337 8 53.363
14 4 Leok, Tanel EST EMF Suzuki 40:16.759 20 1:07.600 0:00.890 1:53.151 8 53.451
15 11 Pourcel, Sebastien FRA FFM Kawasaki 40:31.456 20 1:22.297 0:14.697 1:52.578 16 53.723
16 7 Barragan, Jonathan ESP RFME Honda 40:33.383 20 1:24.224 0:01.927 1:53.294 19 53.383
17 91 Karro, Matiss LAT LAMSF KTM 40:34.838 20 1:25.679 0:01.455 1:54.383 18 52.875
18 32 Potisek, Milko FRA FFM Honda 40:36.784 20 1:27.625 0:01.946 1:54.239 19 52.942
19 36 Bonini, Matteo ITA FMI KTM 40:40.127 20 1:30.968 0:03.343 1:54.233 18 52.944
20 111 Ferris, Dean AUS MA Kawasaki 39:22.217 19 1 lap 1 lap 1:56.174 3 52.06
21 42 Parker, Nathan GBR ACU KTM 39:52.744 19 1 lap 0:30.527 1:57.650 8 51.407
22 61 Brakke, Herjan NED KNMV Yamaha 40:01.077 19 1 lap 0:08.333 1:57.186 13 51.61
23 41 Smith, Alfie GBR ACU Yamaha 40:09.056 19 1 lap 0:07.979 1:57.862 2 51.314
24 116 Pashchynskyi, Mykola UKR FMU KTM 40:12.675 19 1 lap 0:03.619 1:58.398 17 51.082
25 67 Tiainen, Santtu FIN SML Kawasaki 40:23.906 19 1 lap 0:11.231 1:59.157 10 50.757
26 95 Justs, Augusts LAT LAMSF Honda 40:25.295 19 1 lap 0:01.389 1:59.783 6 50.491
27 74 Steinbergs, Ivo LAT LAMSF Kawasaki 40:29.837 19 1 lap 0:04.542 1:59.423 3 50.644
28 99 Teko, Kristers LAT LAMSF Honda 40:30.702 19 1 lap 0:00.865 2:00.021 18 50.391
29 611 Cociu, Mihail MOL FMI KTM 40:06.669 18 2 laps 1 lap 2:02.712 2 49.286
30 39 Guarneri, Davide ITA FMI KTM 13:16.208 5 15 laps 13 laps 1:54.736 4 52.712
31 10 Boissiere, Anthony FRA FFM TM 9:53.131 3 17 laps 2 laps 2:05.685 1 48.12

MX1 – Grand Prix Race 2 – Classification
Pos Nr Rider Nat. Fed. Bike Time laps Diff. First Diff. Prev. Bestlaptime in lap Speed

1 21 Paulin, Gautier FRA FFM Kawasaki 39:17.879 20 0:00.000 0:00.000 1:51.052 16 54.461
2 377 Pourcel, Christophe FRA FFM Kawasaki 39:20.306 20 0:02.427 0:02.427 1:51.942 10 54.028
3 222 Cairoli, Antonio ITA FMI KTM 39:41.068 20 0:23.189 0:20.762 1:50.505 9 54.731
4 9 de Dycker, Ken BEL FMB KTM 39:44.258 20 0:26.379 0:03.190 1:51.488 7 54.248
5 777 Bobryshev, Evgeny RUS MFR Honda 39:47.130 20 0:29.251 0:02.872 1:52.597 8 53.714
6 11 Pourcel, Sebastien FRA FFM Kawasaki 39:47.854 20 0:29.975 0:00.724 1:52.697 2 53.666
7 121 Boog, Xavier FRA FFM Kawasaki 39:49.857 20 0:31.978 0:02.003 1:52.175 11 53.916
8 4 Leok, Tanel EST EMF Suzuki 40:23.641 20 1:05.762 0:33.784 1:53.483 11 53.294
9 24 Simpson, Shaun GBR ACU Yamaha 40:25.362 20 1:07.483 0:01.721 1:54.569 3 52.789
10 22 Strijbos, Kevin BEL FMB KTM 40:26.071 20 1:08.192 0:00.709 1:53.578 14 53.25
11 39 Guarneri, Davide ITA FMI KTM 40:29.649 20 1:11.770 0:03.578 1:53.500 11 53.286
12 7 Barragan, Jonathan ESP RFME Honda 40:45.201 20 1:27.322 0:15.552 1:53.725 8 53.181
13 19 Philippaerts, David ITA FMI Yamaha 40:53.849 20 1:35.970 0:08.648 1:53.970 12 53.067
14 120 Soubeyras, Cedric FRA FFM Honda 41:04.470 20 1:46.591 0:10.621 1:55.121 11 52.536
15 111 Ferris, Dean AUS MA Kawasaki 41:08.243 20 1:50.364 0:03.773 1:56.207 11 52.045
16 32 Potisek, Milko FRA FFM Honda 41:25.435 20 2:07.556 0:17.192 1:55.566 10 52.334
17 36 Bonini, Matteo ITA FMI KTM 39:34.247 19 1 lap 1 lap 1:55.731 10 52.259
18 25 Desalle, Clement BEL FMB Suzuki 40:01.721 19 1 lap 0:27.474 1:51.885 11 54.056
19 42 Parker, Nathan GBR ACU KTM 40:05.057 19 1 lap 0:03.336 1:58.049 9 51.233
20 61 Brakke, Herjan NED KNMV Yamaha 40:10.669 19 1 lap 0:05.612 1:58.517 4 51.031
21 41 Smith, Alfie GBR ACU Yamaha 40:22.507 19 1 lap 0:11.838 1:58.969 8 50.837
22 95 Justs, Augusts LAT LAMSF Honda 40:46.076 19 1 lap 0:23.569 1:58.705 4 50.95
23 67 Tiainen, Santtu FIN SML Kawasaki 40:47.331 19 1 lap 0:01.255 2:00.009 9 50.396
24 91 Karro, Matiss LAT LAMSF KTM 36:29.604 18 2 laps 1 lap 1:54.011 4 53.048
25 611 Cociu, Mihail MOL FMI KTM 40:09.802 18 2 laps 3:40.198 2:03.843 7 48.836
26 116 Pashchynskyi, Mykola UKR FMU KTM 30:17.459 14 6 laps 4 laps 1:59.213 9 50.733
27 999 Goncalves, Rui POR FMP Honda 26:51.906 13 7 laps 1 lap 1:53.277 7 53.391
28 74 Steinbergs, Ivo LAT LAMSF Kawasaki 18:23.317 8 12 laps 5 laps 2:01.286 2 49.866
29 30 Aranda, Gregory FRA FFM Yamaha 9:01.198 3 17 laps 5 laps 1:57.256 2 51.579
30 10 Boissiere, Anthony FRA FFM TM 5:52.146 2 18 laps 1 lap 1:57.783 2 51.349
31 99 Teko, Kristers LAT LAMSF Honda 4:03.947 1 19 laps 1 lap 2:01.104 1 49.941

MX1 – GP Classification
Pos Nr Rider Nat. Fed. Bike Race 1 Race 2 Total

1 21 Paulin, Gautier FRA FFM Kawasaki 22 25 47
2 377 Pourcel, Christophe FRA FFM Kawasaki 25 22 47
3 222 Cairoli, Antonio ITA FMI KTM 18 20 38
4 9 de Dycker, Ken BEL FMB KTM 14 18 32
5 777 Bobryshev, Evgeny RUS MFR Honda 13 16 29
6 121 Boog, Xavier FRA FFM Kawasaki 15 14 29
7 19 Philippaerts, David ITA FMI Yamaha 16 8 24
8 25 Desalle, Clement BEL FMB Suzuki 20 3 23
9 24 Simpson, Shaun GBR ACU Yamaha 10 12 22
10 11 Pourcel, Sebastien FRA FFM Kawasaki 6 15 21
11 4 Leok, Tanel EST EMF Suzuki 7 13 20
12 22 Strijbos, Kevin BEL FMB KTM 9 11 20
13 120 Soubeyras, Cedric FRA FFM Honda 8 7 15
14 7 Barragan, Jonathan ESP RFME Honda 5 9 14
15 999 Goncalves, Rui POR FMP Honda 12 0 12
16 30 Aranda, Gregory FRA FFM Yamaha 11 0 11
17 39 Guarneri, Davide ITA FMI KTM 0 10 10
18 32 Potisek, Milko FRA FFM Honda 3 5 8
19 111 Ferris, Dean AUS MA Kawasaki 1 6 7
20 36 Bonini, Matteo ITA FMI KTM 2 4 6
21 91 Karro, Matiss LAT LAMSF KTM 4 0 4
22 42 Parker, Nathan GBR ACU KTM 0 2 2
23 61 Brakke, Herjan NED KNMV Yamaha 0 1 1
24 41 Smith, Alfie GBR ACU Yamaha 0 0 0
25 95 Justs, Augusts LAT LAMSF Honda 0 0 0
26 67 Tiainen, Santtu FIN SML Kawasaki 0 0 0
27 611 Cociu, Mihail MOL FMI KTM 0 0 0
28 116 Pashchynskyi, Mykola UKR FMU KTM 0 0 0
29 74 Steinbergs, Ivo LAT LAMSF Kawasaki 0 0 0
30 10 Boissiere, Anthony FRA FFM TM 0 0 0
31 99 Teko, Kristers LAT LAMSF Honda 0 0 0

MX1 – World Championship Classification
Pos Nr Rider Nat. Total NED BUL ITA MEX BRA FRA POR BEL SWE LAT RUS CZE GBR NED TBA GER

1 222 Cairoli, A. ITA 88 25-25 18-20 - - - - - - - - - - - - - - - - - - - - - - - - - - - -
2 21 Paulin, G. FRA 79 18-14 22-25 - - - - - - - - - - - - - - - - - - - - - - - - - - - -
3 25 Desalle, C. BEL 67 22-22 20-3 - - - - - - - - - - - - - - - - - - - - - - - - - - - -
4 9 de Dycker, Ken BEL 63 16-15 14-18 - - - - - - - - - - - - - - - - - - - - - - - - - - - -
5 377 Pourcel, C. FRA 59 0-12 25-22 - - - - - - - - - - - - - - - - - - - - - - - - - - - -
6 22 Strijbos, K. BEL 51 15-16 9-11 - - - - - - - - - - - - - - - - - - - - - - - - - - - -
7 121 Boog, Xavier FRA 49 13-7 15-14 - - - - - - - - - - - - - - - - - - - - - - - - - - - -
8 24 Simpson, Shaun GBR 45 10-13 10-12 - - - - - - - - - - - - - - - - - - - - - - - - - - - -
9 19 Philippaerts, D. ITA 44 14-6 16-8 - - - - - - - - - - - - - - - - - - - - - - - - - - - -
10 4 Leok, Tanel EST 42 12-10 7-13 - - - - - - - - - - - - - - - - - - - - - - - - - - - -
11 999 Goncalves, Rui POR 41 11-18 12-0 - - - - - - - - - - - - - - - - - - - - - - - - - - - -
12 183 Frossard, S. FRA 40 20-20 - - - - - - - - - - - - - - - - - - - - - - - - - - - - - -
13 777 Bobryshev, E. RUS 38 0-9 13-16 - - - - - - - - - - - - - - - - - - - - - - - - - - - -
14 7 Barragan, J. ESP 26 4-8 5-9 - - - - - - - - - - - - - - - - - - - - - - - - - - - -
15 11 Pourcel, S. FRA 24 0-3 6-15 - - - - - - - - - - - - - - - - - - - - - - - - - - - -
16 39 Guarneri, D. ITA 22 8-4 0-10 - - - - - - - - - - - - - - - - - - - - - - - - - - - -
17 91 Karro, Matiss LAT 21 6-11 4-0 - - - - - - - - - - - - - - - - - - - - - - - - - - - -
18 120 Soubeyras, C. FRA 15 0-0 8-7 - - - - - - - - - - - - - - - - - - - - - - - - - - - -
19 287 Schiffer, M. GER 14 9-5 - - - - - - - - - - - - - - - - - - - - - - - - - - - - - -
20 36 Bonini, Matteo ITA 13 7-0 2-4 - - - - - - - - - - - - - - - - - - - - - - - - - - - -
21 30 Aranda, G. FRA 11 0-0 11-0 - - - - - - - - - - - - - - - - - - - - - - - - - - - -..

MX2 – Warm-up – Classification
Pos Nr Rider Nat. Fed. Bike Bestlaptime in lap Diff. First Diff. Prev. Tot. Laps Speed

1 170 Leib, Michael USA AMA Yamaha 1:52.609 7 0:00.000 0:00.000 7 53.708
2 89 van Horebeek, Jeremy BEL FMB KTM 1:52.695 6 0:00.086 0:00.086 8 53.667
3 84 Herlings, Jeffrey NED KNMV KTM 1:52.732 5 0:00.123 0:00.037 8 53.649
4 911 Tixier, Jordi FRA FFM KTM 1:52.996 7 0:00.387 0:00.264 8 53.524
5 34 Roelants, Joel BEL FMB Kawasaki 1:53.044 5 0:00.435 0:00.048 8 53.501
6 77 Lupino, Alessandro ITA FMI Husqvarna 1:53.839 7 0:01.230 0:00.795 7 53.128
7 37 Teillet, Valentin FRA FFM Kawasaki 1:54.013 6 0:01.404 0:00.174 7 53.047
8 66 Tonkov, Alexander RUS MFR Honda 1:54.096 8 0:01.487 0:00.083 8 53.008
9 17 Butron, Jose ESP RFME KTM 1:54.178 5 0:01.569 0:00.082 7 52.97
10 100 Searle, Tommy GBR ACU Kawasaki 1:54.283 5 0:01.674 0:00.105 8 52.921
11 152 Petrov, Petar BUL BMF Suzuki 1:54.411 8 0:01.802 0:00.128 8 52.862
12 45 Nicholls, Jake GBR ACU KTM 1:54.478 8 0:01.869 0:00.067 8 52.831
13 22 Ferrandis, Dylan FRA FFM Kawasaki 1:55.256 7 0:02.647 0:00.778 7 52.474
14 128 Monticelli, Ivo ITA FMI Suzuki 1:55.312 8 0:02.703 0:00.056 8 52.449
15 44 Banks-Browne, Elliott GBR ACU KTM 1:55.584 5 0:02.975 0:00.272 7 52.326
16 202 Larrieu, Loic FRA FFM Husqvarna 1:55.621 8 0:03.012 0:00.037 8 52.309
17 151 Kullas, Harri FIN SML Suzuki 1:55.808 8 0:03.199 0:00.187 9 52.224
18 249 Larsen, Nikolaj DEN DMU Suzuki 1:55.915 5 0:03.306 0:00.107 7 52.176
19 262 Del Segato, Giacomo ITA FMI KTM 1:56.144 6 0:03.535 0:00.229 7 52.073
20 141 Cervellin, Andrea ITA FMI TM 1:56.282 8 0:03.673 0:00.138 8 52.011
21 33 Lieber, Julien BEL FMB KTM 1:56.575 5 0:03.966 0:00.293 7 51.881
22 6 Anstie, Max GBR AMA Honda 1:56.666 8 0:04.057 0:00.091 8 51.84
23 922 Fors, Kevin BEL FMB Yamaha 1:56.707 6 0:04.098 0:00.041 6 51.822
24 123 Bernardini, Samuele ITA FMI KTM 1:56.997 5 0:04.388 0:00.290 6 51.694
25 461 Febvre, Romain FRA FFM KTM 1:57.067 6 0:04.458 0:00.070 7 51.663
26 195 Justs, Roberts LAT LAMSF Honda 1:57.111 5 0:04.502 0:00.044 7 51.643
27 119 Pocock, Mel GBR ACU Yamaha 1:57.486 4 0:04.877 0:00.375 6 51.478
28 600 Davis, Ivanovs LAT LAMSF Kawasaki 1:57.895 7 0:05.286 0:00.409 8 51.3
29 51 Getteman, Jens BEL FMB Suzuki 1:58.046 5 0:05.437 0:00.151 7 51.234
30 35 Rauchenecker, Pascal AUT OeAMTC KTM 1:58.154 6 0:05.545 0:00.108 7 51.187
31 101 Zeni, Samuel ITA FMI Yamaha 1:58.346 4 0:05.737 0:00.192 6 51.104
32 264 Bengtsson, Filip SWE SVEMO KTM 1:58.958 8 0:06.349 0:00.612 8 50.841
33 300 Viacheslav, Golovkin RUS LAMSF Kawasaki 1:59.119 6 0:06.510 0:00.161 7 50.773
34 173 Guillod, Valentin SUI FMS KTM 1:59.784 8 0:07.175 0:00.665 8 50.491
35 112 Heibye, Even NOR NMF KTM 2:01.276 5 0:08.667 0:01.492 8 49.87
36 50 Mitchell, Sean Rowen ZIM ZMSF KTM 2:01.795 6 0:09.186 0:00.519 7 49.657
37 837 Battig, Alessandro ITA FMI Yamaha 2:17.584 1 0:24.975 0:15.789 6 43.959
38 25 Coldenhoff, Glenn NED KNMV KTM 3:13.166 1 1:20.557 0:55.582 2 31.31

Info : Grosse chute de Valentin Teillet en première manche..

MX2 – Grand Prix Race 1 – Classification
Pos Nr Rider Nat. Fed. Bike Time laps Diff. First Diff. Prev. Bestlaptime in lap Speed

1 34 Roelants, Joel BEL FMB Kawasaki 39:43.795 20 0:00.000 0:00.000 1:51.545 5 54.22
2 84 Herlings, Jeffrey NED KNMV KTM 39:53.081 20 0:09.286 0:09.286 1:52.610 11 53.707
3 100 Searle, Tommy GBR ACU Kawasaki 40:01.475 20 0:17.680 0:08.394 1:51.306 4 54.337
4 89 van Horebeek, Jeremy BEL FMB KTM 40:08.699 20 0:24.904 0:07.224 1:53.472 4 53.299
5 151 Kullas, Harri FIN SML Suzuki 40:23.410 20 0:39.615 0:14.711 1:53.939 4 53.081
6 6 Anstie, Max GBR AMA Honda 40:28.085 20 0:44.290 0:04.675 1:53.751 5 53.169
7 45 Nicholls, Jake GBR ACU KTM 40:34.437 20 0:50.642 0:06.352 1:54.747 4 52.707
8 22 Ferrandis, Dylan FRA FFM Kawasaki 40:37.046 20 0:53.251 0:02.609 1:54.352 4 52.889
9 911 Tixier, Jordi FRA FFM KTM 40:37.918 20 0:54.123 0:00.872 1:55.029 4 52.578
10 170 Leib, Michael USA AMA Yamaha 40:53.141 20 1:09.346 0:15.223 1:54.459 16 52.84
11 66 Tonkov, Alexander RUS MFR Honda 40:58.130 20 1:14.335 0:04.989 1:54.597 4 52.776
12 152 Petrov, Petar BUL BMF Suzuki 41:00.162 20 1:16.367 0:02.032 1:55.008 4 52.588
13 17 Butron, Jose ESP RFME KTM 41:04.210 20 1:20.415 0:04.048 1:55.553 19 52.34
14 77 Lupino, Alessandro ITA FMI Husqvarna 41:14.158 20 1:30.363 0:09.948 1:54.429 7 52.854
15 249 Larsen, Nikolaj DEN DMU Suzuki 41:37.294 20 1:53.499 0:23.136 1:56.695 9 51.827
16 461 Febvre, Romain FRA FFM KTM 39:50.876 19 1 lap 1 lap 1:57.891 9 51.302
17 119 Pocock, Mel GBR ACU Yamaha 39:52.020 19 1 lap 0:01.144 1:56.200 13 52.048
18 922 Fors, Kevin BEL FMB Yamaha 40:00.254 19 1 lap 0:08.234 1:58.292 9 51.128
19 128 Monticelli, Ivo ITA FMI Suzuki 40:06.192 19 1 lap 0:05.938 1:57.947 11 51.277
20 173 Guillod, Valentin SUI FMS KTM 40:09.530 19 1 lap 0:03.338 1:59.110 12 50.777
21 202 Larrieu, Loic FRA FFM Husqvarna 40:20.143 19 1 lap 0:10.613 1:58.250 19 51.146
22 35 Rauchenecker, Pascal AUT OeAMTC KTM 40:23.849 19 1 lap 0:03.706 1:59.250 5 50.717
23 123 Bernardini, Samuele ITA FMI KTM 40:26.881 19 1 lap 0:03.032 1:58.523 2 51.028
24 195 Justs, Roberts LAT LAMSF Honda 40:32.423 19 1 lap 0:05.542 1:59.393 4 50.656
25 264 Bengtsson, Filip SWE SVEMO KTM 40:36.663 19 1 lap 0:04.240 1:59.944 6 50.424
26 141 Cervellin, Andrea ITA FMI TM 40:43.681 19 1 lap 0:07.018 1:57.812 6 51.336
27 600 Davis, Ivanovs LAT LAMSF Kawasaki 40:50.673 19 1 lap 0:06.992 1:59.636 7 50.553
28 112 Heibye, Even NOR NMF KTM 40:56.731 19 1 lap 0:06.058 1:59.010 5 50.819
29 50 Mitchell, Sean Rowen ZIM ZMSF KTM 40:59.712 19 1 lap 0:02.981 2:00.748 4 50.088
30 101 Zeni, Samuel ITA FMI Yamaha 41:17.272 19 1 lap 0:17.560 1:59.109 4 50.777
31 262 Del Segato, Giacomo ITA FMI KTM 41:30.496 19 1 lap 0:13.224 2:00.013 7 50.395
32 51 Getteman, Jens BEL FMB Suzuki 41:38.130 19 1 lap 0:07.634 1:58.974 15 50.835
33 300 Viacheslav, Golovkin RUS LAMSF Kawasaki 41:51.119 19 1 lap 0:12.989 2:02.098 5 49.534
34 837 Battig, Alessandro ITA FMI Yamaha 40:18.267 18 2 laps 1 lap 2:00.577 4 50.159
35 33 Lieber, Julien BEL FMB KTM 41:16.563 18 2 laps 0:58.296 1:57.912 14 51.292
36 44 Banks-Browne, Elliott GBR ACU KTM 32:48.712 16 4 laps 2 laps 1:55.130 4 52.532
37 37 Teillet, Valentin FRA FFM Kawasaki 3:47.844 1 19 laps 15 laps 1:56.444 1 51.939

MX2 – Grand Prix Race 2 – Classification
Pos Nr Rider Nat. Fed. Bike Time laps Diff. First Diff. Prev.
Bestlaptime in lap Speed
1 100 Searle, Tommy GBR ACU Kawasaki 39:24.388 20 0:00.000 0:00.000 1:51.962 19 54.018
2 84 Herlings, Jeffrey NED KNMV KTM 39:26.619 20 0:02.231 0:02.231 1:51.821 7 54.086
3 89 van Horebeek, Jeremy BEL FMB KTM 40:07.760 20 0:43.372 0:41.141 1:52.981 5 53.531
4 34 Roelants, Joel BEL FMB Kawasaki 40:16.589 20 0:52.201 0:08.829 1:53.568 7 53.254
5 6 Anstie, Max GBR AMA Honda 40:24.004 20 0:59.616 0:07.415 1:54.056 3 53.027
6 77 Lupino, Alessandro ITA FMI Husqvarna 40:42.816 20 1:18.428 0:18.812 1:55.338 4 52.437
7 17 Butron, Jose ESP RFME KTM 40:48.221 20 1:23.833 0:05.405 1:54.869 8 52.651
8 66 Tonkov, Alexander RUS MFR Honda 40:51.132 20 1:26.744 0:02.911 1:55.667 8 52.288
9 151 Kullas, Harri FIN SML Suzuki 40:53.887 20 1:29.499 0:02.755 1:54.808 13 52.679
10 22 Ferrandis, Dylan FRA FFM Kawasaki 40:54.048 20 1:29.660 0:00.161 1:55.697 12 52.274
11 170 Leib, Michael USA AMA Yamaha 41:01.799 20 1:37.411 0:07.751 1:55.430 11 52.395
12 45 Nicholls, Jake GBR ACU KTM 41:06.053 20 1:41.665 0:04.254 1:55.683 10 52.281
13 152 Petrov, Petar BUL BMF Suzuki 41:08.859 20 1:44.471 0:02.806 1:55.481 7 52.372
14 911 Tixier, Jordi FRA FFM KTM 41:10.492 20 1:46.104 0:01.633 1:55.943 8 52.164
15 119 Pocock, Mel GBR ACU Yamaha 41:22.450 20 1:58.062 0:11.958 1:55.713 10 52.267
16 33 Lieber, Julien BEL FMB KTM 39:41.582 19 1 lap 1 lap 1:57.026 5 51.681
17 141 Cervellin, Andrea ITA FMI TM 40:03.191 19 1 lap 0:21.609 1:57.056 10 51.668
18 837 Battig, Alessandro ITA FMI Yamaha 40:08.610 19 1 lap 0:05.419 1:58.383 10 51.088
19 51 Getteman, Jens BEL FMB Suzuki 40:09.121 19 1 lap 0:00.511 1:58.262 9 51.141
20 195 Justs, Roberts LAT LAMSF Honda 40:19.783 19 1 lap 0:10.662 1:59.161 5 50.755
21 173 Guillod, Valentin SUI FMS KTM 40:24.821 19 1 lap 0:05.038 1:58.578 5 51.004
22 249 Larsen, Nikolaj DEN DMU Suzuki 40:36.847 19 1 lap 0:12.026 1:58.827 9 50.898
23 35 Rauchenecker, Pascal AUT OeAMTC KTM 40:53.252 19 1 lap 0:16.405 1:58.713 10 50.946
24 600 Davis, Ivanovs LAT LAMSF Kawasaki 41:25.553 19 1 lap 0:32.301 1:59.313 5 50.69
25 123 Bernardini, Samuele ITA FMI KTM 39:31.261 18 2 laps 1 lap 2:01.014 8 49.978
26 300 Viacheslav, Golovkin RUS LAMSF Kawasaki 39:33.349 18 2 laps 0:02.088 2:02.415 4 49.406
27 262 Del Segato, Giacomo ITA FMI KTM 39:59.496 18 2 laps 0:26.147 2:02.768 6 49.264
28 112 Heibye, Even NOR NMF KTM 40:41.793 18 2 laps 0:42.297 2:00.510 7 50.187
29 128 Monticelli, Ivo ITA FMI Suzuki 37:04.651 17 3 laps 1 lap 1:59.367 3 50.667
30 264 Bengtsson, Filip SWE SVEMO KTM 33:02.435 15 5 laps 2 laps 2:00.386 9 50.238
31 202 Larrieu, Loic FRA FFM Husqvarna 26:08.007 12 8 laps 3 laps 1:58.184 12 51.174
32 101 Zeni, Samuel ITA FMI Yamaha 10:55.158 4 16 laps 8 laps 2:02.848 3 49.232
33 461 Febvre, Romain FRA FFM KTM 6:08.116 2 18 laps 2 laps 2:00.414 2 50.227
34 50 Mitchell, Sean Rowen ZIM ZMSF KTM 4:23.836 1 19 laps 1 lap 2:06.871 1 47.67
35 44 Banks-Browne, Elliott GBR ACU KTM 4:00.364 0 20 laps 1 lap 0:00.000 0 0
36 922 Fors, Kevin BEL FMB Yamaha 0:00.000 0 20 laps -5:59.636 0:00.000 0 0

MX2 – GP Classification
Pos Nr Rider Nat. Fed. Bike Race 1 Race 2 Total

1 100 Searle, Tommy GBR ACU Kawasaki 20 25 45
2 84 Herlings, Jeffrey NED KNMV KTM 22 22 44
3 34 Roelants, Joel BEL FMB Kawasaki 25 18 43
4 89 van Horebeek, Jeremy BEL FMB KTM 18 20 38
5 6 Anstie, Max GBR AMA Honda 15 16 31
6 151 Kullas, Harri FIN SML Suzuki 16 12 28
7 22 Ferrandis, Dylan FRA FFM Kawasaki 13 11 24
8 66 Tonkov, Alexander RUS MFR Honda 10 13 23
9 45 Nicholls, Jake GBR ACU KTM 14 9 23
10 77 Lupino, Alessandro ITA FMI Husqvarna 7 15 22
11 17 Butron, Jose ESP RFME KTM 8 14 22
12 170 Leib, Michael USA AMA Yamaha 11 10 21
13 911 Tixier, Jordi FRA FFM KTM 12 7 19
14 152 Petrov, Petar BUL BMF Suzuki 9 8 17
15 119 Pocock, Mel GBR ACU Yamaha 4 6 10
16 249 Larsen, Nikolaj DEN DMU Suzuki 6 0 6
17 33 Lieber, Julien BEL FMB KTM 0 5 5
18 461 Febvre, Romain FRA FFM KTM 5 0 5
19 141 Cervellin, Andrea ITA FMI TM 0 4 4
20 837 Battig, Alessandro ITA FMI Yamaha 0 3 3
21 922 Fors, Kevin BEL FMB Yamaha 3 0 3
22 51 Getteman, Jens BEL FMB Suzuki 0 2 2
23 128 Monticelli, Ivo ITA FMI Suzuki 2 0 2
24 195 Justs, Roberts LAT LAMSF Honda 0 1 1
25 173 Guillod, Valentin SUI FMS KTM 1 0 1..

MX2 – World Championship Classification
Pos Nr Rider Nat. Total NED BUL ITA MEX BRA FRA POR BEL SWE LAT RUS CZE GBR NED TBA GER

1 84 Herlings, J. NED 94 25-25 22-22 - - - - - - - - - - - - - - - - - - - - - - - - - - - -
2 100 Searle, Tommy GBR 87 22-20 20-25 - - - - - - - - - - - - - - - - - - - - - - - - - - - -
3 34 Roelants, Joel BEL 85 20-22 25-18 - - - - - - - - - - - - - - - - - - - - - - - - - - - -
4 89 van Horebeek, J. BEL 74 18-18 18-20 - - - - - - - - - - - - - - - - - - - - - - - - - - - -
5 6 Anstie, Max GBR 57 10-16 15-16 - - - - - - - - - - - - - - - - - - - - - - - - - - - -
6 45 Nicholls, Jake GBR 51 16-12 14-9 - - - - - - - - - - - - - - - - - - - - - - - - - - - -
7 911 Tixier, Jordi FRA 48 15-14 12-7 - - - - - - - - - - - - - - - - - - - - - - - - - - - -
8 22 Ferrandis, D. FRA 48 11-13 13-11 - - - - - - - - - - - - - - - - - - - - - - - - - - - -
9 151 Kullas, Harri FIN 43 5-10 16-12 - - - - - - - - - - - - - - - - - - - - - - - - - - - -
10 77 Lupino, A. ITA 38 8-8 7-15 - - - - - - - - - - - - - - - - - - - - - - - - - - - -
11 66 Tonkov, A. RUS 38 14-1 10-13 - - - - - - - - - - - - - - - - - - - - - - - - - - - -
12 119 Pocock, Mel GBR 32 13-9 4-6 - - - - - - - - - - - - - - - - - - - - - - - - - - - -
13 152 Petrov, Petar BUL 24 7-0 9-8 - - - - - - - - - - - - - - - - - - - - - - - - - - - -
14 37 Teillet, V. FRA 23 12-11 0-0 - - - - - - - - - - - - - - - - - - - - - - - - - - - -
15 17 Butron, Jose ESP 22 0-0 8-14 - - - - - - - - - - - - - - - - - - - - - - - - - - - -
16 25 Coldenhoff, G. NED 21 6-15 - - - - - - - - - - - - - - - - - - - - - - - - - - - - - -
17 170 Leib, Michael USA 21 - - 11-10 - - - - - - - - - - - - - - - - - - - - - - - - - - - -
18 249 Larsen, N. DEN 15 9-0 6-0 - - - - - - - - - - - - - - - - - - - - - - - - - - - -
19 461 Febvre, Romain FRA 11 0-6 5-0 - - - - - - - - - - - - - - - - - - - - - - - - - - - -
20 195 Justs, Roberts LAT 8 2-5 0-1 - - - - - - - - - - - - - - - - - - - - - - - - - - - -
21 173 Guillod, V. SUI 8 3-4 1-0 - - - - - - - - - - - - - - - - - - - - - - - - - - - -..

EMX 125 – Race 2 – Classification
Pos Nr Rider Nat. Fed. Bike Time laps Diff. First Diff. Prev. Bestlaptime in lap Speed

1 243 Gajser, Tim SLO AMZS KTM 29:22.000 14 0:00.000 0:00.000 1:56.607 9 51.867
2 999 Bonini, Davide ITA FMI KTM 29:29.463 14 0:07.463 0:07.463 1:57.043 14 51.673
3 200 Dunn, James GBR ACU KTM 29:30.754 14 0:08.754 0:01.291 1:56.850 14 51.759
4 274 Lundgren, Anton SWE SVEMO KTM 30:11.478 14 0:49.478 0:40.724 1:59.682 2 50.534
5 29 Jacobi, Henry GER DMSB KTM 30:20.203 14 0:58.203 0:08.725 1:58.500 4 51.038
6 100 Klingshelm, Magne NOR NMF KTM 30:24.283 14 1:02.283 0:04.080 1:59.369 7 50.666
7 79 Corneth, Jaap NED KNMV KTM 30:26.163 14 1:04.163 0:01.880 2:00.701 2 50.107
8 99 Zaragoza Beltran, Jorge ESP RFME Suzuki 30:27.088 14 1:05.088 0:00.925 1:58.347 8 51.104
9 112 Vlaanderen, Calvin NED KNMV KTM 30:30.495 14 1:08.495 0:03.407 1:59.683 9 50.533
10 16 Adams, Nicholas GBR ACU KTM 30:38.633 14 1:16.633 0:08.138 2:00.691 6 50.111
11 223 De Pietri, Tommaso ITA FMI Suzuki 30:44.785 14 1:22.785 0:06.152 2:01.689 6 49.7
12 101 Kovar, Vaclav CZE ACCR KTM 30:51.630 14 1:29.630 0:06.845 2:01.138 7 49.927
13 114 Della Mora, Alessio ITA FMI KTM 30:55.338 14 1:33.338 0:03.708 2:02.111 10 49.529
14 8 Deghi, Gianluca ITA FMI KTM 30:57.665 14 1:35.665 0:02.327 2:02.886 5 49.216
15 64 Damiaens, Dietger BEL FMB KTM 30:59.740 14 1:37.740 0:02.075 2:02.388 8 49.417
16 722 Mantovani, Michael ITA FMI KTM 31:01.277 14 1:39.277 0:01.537 2:03.457 9 48.989
17 15 Hofman, Styn BEL FMB KTM 31:02.318 14 1:40.318 0:01.041 2:02.098 3 49.534
18 997 Righi, Riccardo ITA FMI KTM 31:03.117 14 1:41.117 0:00.799 2:02.103 7 49.532
19 76 Roosiorg, Henri EST EMF KTM 31:05.000 14 1:43.000 0:01.883 2:02.991 3 49.174
20 81 Larranaga, Iker ESP RFME Suzuki 31:06.213 14 1:44.213 0:01.213 2:02.766 7 49.264
21 110 Verhaeghe, Alexis FRA FFM Kawasaki 31:10.291 14 1:48.291 0:04.078 2:01.599 6 49.737
22 191 Podmol, Filip CZE ACCR KTM 31:14.240 14 1:52.240 0:03.949 2:02.722 3 49.282
23 48 Voytsytskiy, Rostyslav UKR FMU KTM 31:14.339 14 1:52.339 0:00.099 2:02.379 9 49.42
24 77 Jasikonis, Arminas LTU LMSF KTM 29:24.262 13 1 lap 1 lap 2:02.433 7 49.398
25 51 Castro, Sergio ESP RFME KTM 29:25.522 13 1 lap 0:01.260 2:03.088 6 49.136
26 20 Facchetti, Emanuele ITA FMI KTM 29:33.263 13 1 lap 0:07.741 2:02.895 6 49.213
27 595 Toccaceli, Bryan SMR FSM Suzuki 29:41.016 13 1 lap 0:07.753 2:03.279 4 49.059
28 251 Guriev, Artem RUS MFR KTM 29:42.436 13 1 lap 0:01.420 2:04.795 6 48.463
29 278 Vermijl, Thomas BEL FMB KTM 29:46.282 13 1 lap 0:03.846 2:05.015 5 48.378
30 198 Kaipanen, Mikael FIN SML KTM 29:46.791 13 1 lap 0:00.509 2:04.876 6 48.432
31 148 Eccles, Michael GBR ACU KTM 29:51.434 13 1 lap 0:04.643 2:05.145 4 48.328
32 183 Renkens, Nathan BEL FMB Yamaha 29:54.875 13 1 lap 0:03.441 2:04.373 12 48.628
33 152 Marini, Thomas SMR FSM Suzuki 30:48.631 13 1 lap 0:53.756 2:07.938 2 47.273
34 372 Baranov, Ivan RUS MFR KTM 27:14.133 12 2 laps 1 lap 2:01.131 8 49.929
35 95 Furlotti, Simone ITA FMI Suzuki 17:33.599 7 7 laps 5 laps 1:58.227 3 51.156
36 63 Bengtsson, Carl SWE SVEMO Yamaha 13:16.410 5 9 laps 2 laps 2:03.633 1 48.919
37 156 van Nobelen, Jordi NED KNMV KTM 8:17.669 3 11 laps 2 laps 2:03.934 3 48.8
38 160 Kritikos, Manolis GRE AMOTOE Yamaha 5:54.391 1 13 laps 2 laps 3:41.770 1 27.271
39 25 Vondrasek, Jan CZE ACCR KTM 2:11.092 0 14 laps 1 lap 0:00.000 0 0
40 141 Jonass, Pauls LAT LAMSF KTM 0:00.000 0 14 laps -3:48.908 0:00.000 0 0

EMX 125 – Overall Classification
Pos Nr Rider Nat. Fed. Bike Race 1 Race 2 Total

1 243 Gajser, Tim SLO AMZS KTM 25 25 50
2 999 Bonini, Davide ITA FMI KTM 20 22 42
3 99 Zaragoza Beltran, Jorge ESP RFME Suzuki 22 13 35
4 29 Jacobi, Henry GER DMSB KTM 18 16 34
5 274 Lundgren, Anton SWE SVEMO KTM 14 18 32
6 100 Klingshelm, Magne NOR NMF KTM 15 15 30
7 112 Vlaanderen, Calvin NED KNMV KTM 13 12 25
8 200 Dunn, James GBR ACU KTM 2 20 22
9 79 Corneth, Jaap NED KNMV KTM 6 14 20
10 223 De Pietri, Tommaso ITA FMI Suzuki 8 10 18
11 95 Furlotti, Simone ITA FMI Suzuki 16 0 16
12 997 Righi, Riccardo ITA FMI KTM 12 3 15
13 722 Mantovani, Michael ITA FMI KTM 9 5 14
14 114 Della Mora, Alessio ITA FMI KTM 5 8 13
15 101 Kovar, Vaclav CZE ACCR KTM 3 9 12
16 16 Adams, Nicholas GBR ACU KTM 0 11 11
17 81 Larranaga, Iker ESP RFME Suzuki 10 1 11
18 372 Baranov, Ivan RUS MFR KTM 11 0 11
19 8 Deghi, Gianluca ITA FMI KTM 0 7 7
20 141 Jonass, Pauls LAT LAMSF KTM 7 0 7..

EMX 125 – Championship Classification
Pos Nr Rider Nat. Total BUL ITA POR BEL SWE GBR TBA

1 243 Gajser, Tim SLO 50 25-25 - - - - - - - - - - - -
2 999 Bonini, Davide ITA 42 20-22 - - - - - - - - - - - -
3 99 Zaragoza Beltran, J. ESP 35 22-13 - - - - - - - - - - - -
4 29 Jacobi, Henry GER 34 18-16 - - - - - - - - - - - -
5 274 Lundgren, A. SWE 32 14-18 - - - - - - - - - - - -
6 100 Klingshelm, M. NOR 30 15-15 - - - - - - - - - - - -
7 112 Vlaanderen, C. NED 25 13-12 - - - - - - - - - - - -
8 200 Dunn, James GBR 22 2-20 - - - - - - - - - - - -
9 79 Corneth, Jaap NED 20 6-14 - - - - - - - - - - - -
10 223 De Pietri, T. ITA 18 8-10 - - - - - - - - - - - -
11 95 Furlotti, S. ITA 16 16-0 - - - - - - - - - - - -
12 997 Righi, R. ITA 15 12-3 - - - - - - - - - - - -
13 722 Mantovani, M. ITA 14 9-5 - - - - - - - - - - - -
14 1 Della Mora, A. ITA 13 5-8 - - - - - - - - - - - -
15 101 Kovar, Vaclav CZE 12 3-9 - - - - - - - - - - - -
16 16 Adams, N. GBR 11 0-11 - - - - - - - - - - - -
17 372 Baranov, Ivan RUS 11 11-0 - - - - - - - - - - - -
18 81 Larranaga, I. ESP 11 10-1 - - - - - - - - - - - -
19 8 Deghi, G. ITA 7 0-7 - - - - - - - - - - - -
20 141 Jonass, Pauls LAT 7 7-0 - - - - - - - - - - - -..

Suivez le Grand PRIx de Bulgarie tout au long de la journée sur PRE111IERMOTOCROSS..

A voir aussi :

Le commentaires sont fermés.